Time;durP1;ratioP1;P1;durP2;ratioP2;P2;SDS_P1;SDS_P2;PMS_P1;PMS_P2;Temp;Humidity;BMP_temperature;BMP_pressure;BME280_temperature;BME280_humidity;BME280_pressure;Samples;Min_cycle;Max_cycle;Signal;HPM_P1;HPM_P2
2021/12/28 00:00:13;;;;;;;14.10;8.10;;;4.10;99.90;;;;;;5011961;28;20049;-79
2021/12/28 00:02:40;;;;;;;16.63;8.75;;;4.10;99.90;;;;;;5063856;28;20058;-79
2021/12/28 00:05:09;;;;;;;13.75;8.35;;;4.20;99.90;;;;;;5047018;28;20405;-79
2021/12/28 00:07:35;;;;;;;14.98;8.80;;;4.20;99.90;;;;;;5028437;28;20132;-79
2021/12/28 00:10:01;;;;;;;10.88;7.75;;;4.20;99.90;;;;;;5030237;28;20049;-80
2021/12/28 00:12:30;;;;;;;12.13;8.00;;;4.30;99.90;;;;;;5044921;28;20102;-79
2021/12/28 00:15:17;;;;;;;16.10;8.30;;;4.30;99.90;;;;;;5031305;28;20053;-79
2021/12/28 00:17:59;;;;;;;16.42;8.32;;;3.60;99.90;;;;;;5029920;28;20400;-80
2021/12/28 00:20:32;;;;;;;13.45;7.78;;;4.30;99.90;;;;;;5044080;28;20048;-79
2021/12/28 00:22:59;;;;;;;14.85;8.57;;;4.30;99.90;;;;;;5046554;28;20052;-80
2021/12/28 00:25:28;;;;;;;17.13;8.18;;;4.40;99.90;;;;;;5027501;28;20377;-80
2021/12/28 00:27:54;;;;;;;14.07;8.63;;;4.40;99.90;;;;;;5029454;28;20080;-79
2021/12/28 00:30:22;;;;;;;13.93;9.02;;;4.50;99.90;;;;;;5045827;28;20536;-79
2021/12/28 00:32:52;;;;;;;13.20;8.55;;;4.50;99.90;;;;;;5045379;28;20033;-78
2021/12/28 00:35:35;;;;;;;17.05;9.02;;;5.70;99.90;;;;;;5047196;28;20052;-79
2021/12/28 00:38:04;;;;;;;9.73;7.20;;;5.70;99.90;;;;;;5043892;28;20049;-78
2021/12/28 00:40:31;;;;;;;14.48;8.95;;;4.50;99.90;;;;;;5046643;28;20706;-78
2021/12/28 00:43:00;;;;;;;19.08;8.45;;;4.40;99.90;;;;;;5044779;28;20052;-79
2021/12/28 00:45:27;;;;;;;18.00;9.43;;;3.20;99.90;;;;;;5044956;28;20076;-79
2021/12/28 00:47:53;;;;;;;17.85;9.20;;;4.50;99.90;;;;;;5029805;28;20496;-79
2021/12/28 00:50:23;;;;;;;16.08;8.77;;;4.40;99.90;;;;;;5044295;28;20044;-79
2021/12/28 00:52:49;;;;;;;17.70;8.98;;;4.40;99.90;;;;;;5047005;28;20076;-80
2021/12/28 00:55:16;;;;;;;15.70;8.50;;;4.40;99.90;;;;;;5030946;28;20076;-80
2021/12/28 00:57:42;;;;;;;15.57;9.13;;;4.30;99.90;;;;;;5067716;28;20058;-80
2021/12/28 01:00:12;;;;;;;13.88;8.45;;;4.30;99.90;;;;;;5068267;28;20044;-80
2021/12/28 01:02:39;;;;;;;14.68;9.02;;;4.00;99.90;;;;;;5087316;28;20403;-79
2021/12/28 01:05:06;;;;;;;15.32;9.02;;;4.30;99.90;;;;;;5088151;28;20093;-80
2021/12/28 01:07:32;;;;;;;14.63;9.60;;;4.30;99.90;;;;;;5064731;28;20056;-79
2021/12/28 01:09:58;;;;;;;15.32;9.18;;;4.30;99.90;;;;;;5069755;28;20055;-80
2021/12/28 01:12:24;;;;;;;18.85;9.25;;;4.30;99.90;;;;;;5048367;28;20051;-80
2021/12/28 01:14:50;;;;;;;14.63;8.85;;;4.30;99.90;;;;;;5087344;28;20132;-79
2021/12/28 01:17:16;;;;;;;16.95;9.77;;;4.20;99.90;;;;;;5049737;28;20119;-80
2021/12/28 01:19:42;;;;;;;15.88;9.65;;;4.30;99.90;;;;;;5052328;28;20386;-79
2021/12/28 01:22:08;;;;;;;15.40;9.73;;;4.30;99.90;;;;;;5086735;28;20048;-79
2021/12/28 01:24:34;;;;;;;14.73;10.07;;;4.30;99.90;;;;;;5086210;28;20101;-80
2021/12/28 01:27:00;;;;;;;19.63;8.93;;;4.30;99.90;;;;;;5053677;28;20036;-79
2021/12/28 01:29:27;;;;;;;18.30;11.15;;;4.30;99.90;;;;;;5067734;28;20048;-80
2021/12/28 01:31:53;;;;;;;21.17;11.00;;;4.30;99.90;;;;;;5088233;28;20499;-80
2021/12/28 01:34:19;;;;;;;15.52;9.75;;;4.30;99.90;;;;;;5086517;28;20047;-80
2021/12/28 01:36:45;;;;;;;19.55;10.10;;;4.30;99.90;;;;;;5087891;28;20072;-80
2021/12/28 01:39:12;;;;;;;15.82;9.80;;;4.30;99.90;;;;;;5088043;28;20043;-80
2021/12/28 01:41:38;;;;;;;21.58;11.18;;;4.30;99.90;;;;;;5086140;28;20273;-80
2021/12/28 01:44:07;;;;;;;19.90;11.70;;;4.30;99.90;;;;;;5088377;28;20142;-80
2021/12/28 01:46:34;;;;;;;20.45;11.18;;;4.30;99.90;;;;;;5085593;28;20047;-80
2021/12/28 01:49:00;;;;;;;20.40;11.02;;;4.30;99.90;;;;;;5069596;28;20048;-80
2021/12/28 01:51:29;;;;;;;22.70;11.02;;;4.30;99.90;;;;;;5067846;28;20048;-80
2021/12/28 01:53:57;;;;;;;19.45;11.30;;;4.20;99.90;;;;;;5068761;28;20052;-80
2021/12/28 01:56:32;;;;;;;25.38;11.27;;;4.30;99.90;;;;;;5069048;28;20050;-80
2021/12/28 01:58:58;;;;;;;20.40;11.18;;;6.10;99.90;;;;;;5066664;28;20060;-80
2021/12/28 02:01:25;;;;;;;22.33;12.55;;;4.30;99.90;;;;;;5088028;28;20048;-80
2021/12/28 02:03:51;;;;;;;18.83;11.40;;;4.30;99.90;;;;;;5085257;28;20450;-80
2021/12/28 02:06:17;;;;;;;26.60;11.88;;;4.30;99.90;;;;;;5087053;28;20046;-80
2021/12/28 02:08:43;;;;;;;26.08;14.05;;;4.30;99.90;;;;;;5067874;28;20051;-80
2021/12/28 02:11:10;;;;;;;19.83;12.57;;;4.30;99.90;;;;;;5068498;28;20048;-80
2021/12/28 02:13:36;;;;;;;25.58;12.80;;;4.30;99.90;;;;;;5087379;28;20048;-80
2021/12/28 02:16:02;;;;;;;26.58;12.70;;;4.40;99.90;;;;;;5085146;28;20096;-80
2021/12/28 02:18:30;;;;;;;22.58;11.60;;;4.30;99.90;;;;;;5087393;28;20518;-80
2021/12/28 02:20:59;;;;;;;22.65;13.00;;;4.40;99.90;;;;;;5066600;28;20044;-80
2021/12/28 02:23:25;;;;;;;30.88;13.43;;;5.00;99.90;;;;;;5087615;28;20403;-80
2021/12/28 02:25:52;;;;;;;35.00;14.32;;;4.40;99.90;;;;;;5086375;28;20166;-80
2021/12/28 02:28:17;;;;;;;25.45;12.98;;;4.30;99.90;;;;;;5086380;28;20051;-80
2021/12/28 02:30:46;;;;;;;32.70;13.73;;;4.40;99.90;;;;;;5085887;28;20040;-80
2021/12/28 02:33:12;;;;;;;42.95;13.95;;;4.40;99.90;;;;;;5084534;28;20062;-80
2021/12/28 02:35:39;;;;;;;32.13;13.30;;;4.40;99.90;;;;;;5087457;28;20040;-80
2021/12/28 02:38:06;;;;;;;30.77;13.25;;;4.50;99.90;;;;;;5084819;28;20067;-80
2021/12/28 02:40:33;;;;;;;25.27;13.35;;;4.40;99.90;;;;;;5087167;28;20048;-80
2021/12/28 02:43:00;;;;;;;41.92;13.77;;;4.50;99.90;;;;;;5085993;28;20447;-80
2021/12/28 02:45:28;;;;;;;38.80;13.23;;;4.50;99.90;;;;;;5085769;28;20044;-80
2021/12/28 02:47:54;;;;;;;37.25;14.05;;;4.50;99.90;;;;;;5068427;28;20102;-80
2021/12/28 02:50:24;;;;;;;36.50;12.65;;;3.70;99.90;;;;;;5066683;28;20044;-80
2021/12/28 02:52:50;;;;;;;34.33;13.35;;;5.70;99.90;;;;;;5068604;28;20625;-80
2021/12/28 02:55:19;;;;;;;37.60;13.40;;;4.40;99.90;;;;;;5084229;28;20044;-80
2021/12/28 02:58:18;;;;;;;37.17;14.45;;;4.40;99.90;;;;;;5086652;28;20048;-80
2021/12/28 03:00:54;;;;;;;42.92;14.57;;;4.40;99.90;;;;;;5060299;28;20066;-80
2021/12/28 03:03:23;;;;;;;31.33;13.80;;;3.50;99.90;;;;;;5064026;28;20044;-80
2021/12/28 03:05:52;;;;;;;35.28;14.90;;;4.50;99.90;;;;;;5066047;28;20052;-80
2021/12/28 03:08:19;;;;;;;33.92;14.90;;;5.30;99.90;;;;;;5064391;28;20084;-80
2021/12/28 03:10:47;;;;;;;40.53;13.88;;;4.50;99.90;;;;;;5065351;28;20514;-80
2021/12/28 03:13:25;;;;;;;42.55;14.70;;;4.50;99.90;;;;;;5047772;28;20044;-80
2021/12/28 03:15:52;;;;;;;69.32;16.27;;;4.50;99.90;;;;;;5063662;28;20112;-80
2021/12/28 03:18:18;;;;;;;52.00;15.65;;;4.50;99.90;;;;;;5066399;28;20100;-80
2021/12/28 03:20:44;;;;;;;58.25;15.80;;;4.50;99.90;;;;;;5045328;28;20044;-80
2021/12/28 03:23:14;;;;;;;50.47;15.60;;;4.50;99.90;;;;;;5065597;28;20530;-80
2021/12/28 03:25:40;;;;;;;45.47;14.45;;;5.10;99.90;;;;;;5046756;28;20048;-80
2021/12/28 03:28:06;;;;;;;39.33;16.35;;;4.60;99.90;;;;;;5064659;28;20041;-80
2021/12/28 03:30:32;;;;;;;52.80;15.70;;;5.40;99.90;;;;;;5065587;28;20047;-80
2021/12/28 03:32:58;;;;;;;86.45;18.75;;;4.60;99.90;;;;;;5063577;28;20452;-80
2021/12/28 03:35:24;;;;;;;56.50;17.27;;;4.60;99.90;;;;;;5065894;28;20049;-80
2021/12/28 03:37:50;;;;;;;38.00;16.52;;;4.60;99.90;;;;;;5045096;28;20043;-80
2021/12/28 03:40:17;;;;;;;183.00;21.90;;;4.70;99.90;;;;;;5065980;28;20076;-80
2021/12/28 03:42:43;;;;;;;106.85;18.90;;;4.70;99.90;;;;;;5063799;28;20043;-80
2021/12/28 03:45:11;;;;;;;48.13;16.42;;;4.70;99.90;;;;;;5064761;28;20033;-80
2021/12/28 03:47:37;;;;;;;83.22;18.83;;;4.80;99.90;;;;;;5065250;28;20048;-80
2021/12/28 03:50:07;;;;;;;122.07;20.80;;;4.80;99.90;;;;;;5062961;28;20087;-80
2021/12/28 03:52:33;;;;;;;125.72;21.70;;;4.80;99.90;;;;;;5047515;28;20045;-80
2021/12/28 03:54:58;;;;;;;93.22;19.40;;;4.80;99.90;;;;;;5063187;28;20048;-80
2021/12/28 03:57:24;;;;;;;71.95;18.95;;;4.80;99.90;;;;;;5065451;28;20040;-80
2021/12/28 03:59:50;;;;;;;70.22;18.98;;;6.50;99.90;;;;;;5075205;28;20091;-80
2021/12/28 04:02:15;;;;;;;62.92;18.35;;;4.80;99.90;;;;;;5066373;28;20399;-80
2021/12/28 04:04:41;;;;;;;151.50;22.77;;;4.90;99.90;;;;;;5085462;28;20067;-80
2021/12/28 04:07:09;;;;;;;82.32;17.85;;;6.40;99.90;;;;;;5083233;28;20040;-81
2021/12/28 04:12:16;;;;;;;284.77;27.88;;;4.90;99.90;;;;;;5083363;28;20040;-80
2021/12/28 04:14:42;;;;;;;80.57;19.35;;;6.50;99.90;;;;;;5067113;28;20399;-80
2021/12/28 04:17:08;;;;;;;151.55;22.60;;;4.90;99.90;;;;;;5084228;28;20040;-80
2021/12/28 04:19:33;;;;;;;39.55;16.58;;;4.80;99.90;;;;;;5066238;28;20436;-80
2021/12/28 04:21:59;;;;;;;51.28;18.33;;;4.90;99.90;;;;;;5085591;28;20535;-80
2021/12/28 04:24:25;;;;;;;59.67;19.40;;;4.90;99.90;;;;;;5082844;28;20089;-80
2021/12/28 04:26:51;;;;;;;74.18;19.00;;;4.90;99.90;;;;;;5067070;28;20044;-80
2021/12/28 04:29:16;;;;;;;145.20;22.90;;;4.90;99.90;;;;;;5064102;28;20062;-80
2021/12/28 04:31:42;;;;;;;221.38;26.45;;;4.90;99.90;;;;;;5066875;28;20539;-81
2021/12/28 04:34:08;;;;;;;66.82;17.85;;;4.90;99.90;;;;;;5049681;28;20032;-80
2021/12/28 04:36:34;;;;;;;166.50;24.25;;;4.90;99.90;;;;;;5065672;28;20365;-80
2021/12/28 04:39:00;;;;;;;80.40;21.02;;;4.90;99.90;;;;;;5066374;28;20036;-80
2021/12/28 04:41:25;;;;;;;105.72;20.20;;;5.00;99.90;;;;;;5064187;28;20055;-80
2021/12/28 04:43:51;;;;;;;126.18;22.35;;;5.00;99.90;;;;;;5067008;28;20047;-80
2021/12/28 04:46:17;;;;;;;145.45;23.73;;;5.00;99.90;;;;;;5064232;28;20036;-80
2021/12/28 04:48:43;;;;;;;390.77;33.45;;;5.00;99.90;;;;;;5049948;28;20040;-80
2021/12/28 04:51:08;;;;;;;281.00;29.20;;;5.70;99.90;;;;;;5065027;28;20090;-78
2021/12/28 04:53:34;;;;;;;232.85;25.55;;;5.00;99.90;;;;;;5066031;28;20047;-78
2021/12/28 04:56:00;;;;;;;197.00;26.38;;;5.00;99.90;;;;;;5066949;28;20236;-78
2021/12/28 04:58:26;;;;;;;150.63;21.92;;;5.10;99.90;;;;;;5047621;28;20458;-78
2021/12/28 05:00:53;;;;;;;184.07;24.75;;;5.10;99.90;;;;;;5083348;28;20052;-78
2021/12/28 05:03:19;;;;;;;145.70;22.95;;;5.10;99.90;;;;;;5047519;28;20052;-80
2021/12/28 05:05:50;;;;;;;96.78;21.27;;;5.10;99.90;;;;;;5084813;28;20083;-78
2021/12/28 05:08:17;;;;;;;86.75;21.73;;;5.10;99.90;;;;;;5064716;28;20055;-78
2021/12/28 05:10:43;;;;;;;76.45;21.10;;;5.10;99.90;;;;;;5065382;28;20049;-78
2021/12/28 05:13:09;;;;;;;172.90;24.90;;;5.30;99.90;;;;;;5084581;28;20040;-78
2021/12/28 05:15:35;;;;;;;75.78;21.58;;;5.20;99.90;;;;;;5082562;28;20040;-78
2021/12/28 05:18:02;;;;;;;69.07;21.15;;;5.20;99.90;;;;;;5084708;28;20047;-78
2021/12/28 05:20:28;;;;;;;188.73;26.38;;;5.20;99.90;;;;;;5082000;28;20040;-79
2021/12/28 05:22:53;;;;;;;199.63;26.67;;;5.30;99.90;;;;;;5084681;28;20036;-78
2021/12/28 05:25:20;;;;;;;255.35;27.48;;;5.30;99.90;;;;;;5083267;28;20573;-78
2021/12/28 05:27:45;;;;;;;195.65;27.83;;;5.90;99.90;;;;;;5065339;28;20079;-79
2021/12/28 05:30:12;;;;;;;218.73;27.73;;;5.40;99.90;;;;;;5084427;28;20121;-79
2021/12/28 05:32:38;;;;;;;176.15;24.50;;;5.40;99.90;;;;;;5082540;28;20237;-79
2021/12/28 05:35:07;;;;;;;127.05;23.40;;;5.40;99.90;;;;;;5084649;28;20044;-79
2021/12/28 05:37:33;;;;;;;70.88;20.38;;;5.40;99.90;;;;;;5082125;28;20051;-79
2021/12/28 05:39:59;;;;;;;115.10;21.63;;;5.40;99.90;;;;;;5085447;28;20158;-78
2021/12/28 05:42:25;;;;;;;95.20;21.58;;;5.40;99.90;;;;;;5068134;28;20513;-78
2021/12/28 05:44:50;;;;;;;64.80;20.67;;;5.40;99.90;;;;;;5087330;28;20050;-79
2021/12/28 05:47:16;;;;;;;75.47;20.05;;;5.40;99.90;;;;;;5086259;28;20068;-79
2021/12/28 05:49:42;;;;;;;67.88;18.98;;;5.40;99.90;;;;;;5086331;28;20048;-78
2021/12/28 05:52:08;;;;;;;49.20;17.95;;;5.40;99.90;;;;;;5088099;28;20071;-79
2021/12/28 05:54:34;;;;;;;56.83;18.02;;;6.50;99.90;;;;;;5085560;28;20074;-79
2021/12/28 05:57:00;;;;;;;48.33;17.27;;;5.40;99.90;;;;;;5087825;28;20432;-79
2021/12/28 05:59:26;;;;;;;69.30;18.48;;;5.40;99.90;;;;;;5085794;28;20233;-79
2021/12/28 06:01:52;;;;;;;51.83;17.20;;;5.40;99.90;;;;;;5069227;28;20080;-78
2021/12/28 06:04:18;;;;;;;47.75;17.13;;;5.30;99.90;;;;;;5068887;28;20473;-79
2021/12/28 06:06:43;;;;;;;51.58;17.10;;;5.30;99.90;;;;;;5086021;28;20093;-79
2021/12/28 06:09:09;;;;;;;53.22;17.00;;;6.30;99.90;;;;;;5069132;28;20063;-78
2021/12/28 06:11:35;;;;;;;47.47;17.27;;;5.30;99.90;;;;;;5085070;28;20088;-78
2021/12/28 06:14:01;;;;;;;56.47;17.42;;;5.30;99.90;;;;;;5087972;28;20070;-78
2021/12/28 06:16:27;;;;;;;50.08;18.08;;;5.30;99.90;;;;;;5066970;28;20089;-79
2021/12/28 06:18:52;;;;;;;41.38;16.23;;;5.30;99.90;;;;;;5068566;28;20044;-78
2021/12/28 06:21:18;;;;;;;48.42;14.18;;;5.30;99.90;;;;;;5068239;28;20044;-80
2021/12/28 06:23:44;;;;;;;39.58;16.10;;;5.30;99.90;;;;;;5067309;28;20126;-79
2021/12/28 06:26:09;;;;;;;43.17;16.77;;;5.30;99.90;;;;;;5087673;28;20040;-79
2021/12/28 06:28:35;;;;;;;37.58;16.20;;;5.30;99.90;;;;;;5066090;28;20056;-79
2021/12/28 06:31:01;;;;;;;37.47;15.75;;;6.00;99.90;;;;;;5068997;28;20044;-79
2021/12/28 06:33:27;;;;;;;42.50;15.93;;;5.30;99.90;;;;;;5050480;28;20047;-79
2021/12/28 06:35:54;;;;;;;44.42;15.68;;;5.20;99.90;;;;;;5068864;28;20098;-79
2021/12/28 06:38:21;;;;;;;44.85;15.02;;;6.20;99.90;;;;;;5086165;28;20048;-80
2021/12/28 06:40:47;;;;;;;42.78;16.60;;;5.20;99.90;;;;;;5067667;28;20133;-79
2021/12/28 06:43:13;;;;;;;43.20;15.95;;;5.20;99.90;;;;;;5068546;28;20040;-79
2021/12/28 06:45:40;;;;;;;39.75;15.02;;;6.60;99.90;;;;;;5066143;28;20097;-79
2021/12/28 06:48:05;;;;;;;39.05;15.02;;;5.20;99.90;;;;;;5052120;28;20088;-79
2021/12/28 06:50:32;;;;;;;47.42;17.27;;;5.30;99.90;;;;;;5065685;28;20475;-80
2021/12/28 06:52:57;;;;;;;36.83;16.50;;;5.60;99.90;;;;;;5068199;28;20048;-79
2021/12/28 06:55:23;;;;;;;42.58;16.17;;;5.30;99.90;;;;;;5067326;28;20054;-79
2021/12/28 06:57:49;;;;;;;36.45;15.32;;;5.30;99.90;;;;;;5067345;28;20051;-79
2021/12/28 07:00:17;;;;;;;35.95;14.77;;;5.20;99.90;;;;;;5084750;28;20476;-80
2021/12/28 07:02:44;;;;;;;47.22;15.50;;;5.20;99.90;;;;;;5084025;28;20086;-79
2021/12/28 07:05:11;;;;;;;37.47;16.40;;;5.20;99.90;;;;;;5085475;28;20055;-80
2021/12/28 07:07:38;;;;;;;43.88;16.80;;;5.20;99.90;;;;;;5084295;28;20071;-79
2021/12/28 07:10:06;;;;;;;44.38;16.52;;;5.50;99.90;;;;;;5068098;28;20047;-79
2021/12/28 07:12:32;;;;;;;34.42;14.38;;;5.20;99.90;;;;;;5067255;28;20059;-80
2021/12/28 07:14:58;;;;;;;37.80;15.07;;;5.20;99.90;;;;;;5066770;28;20067;-79
2021/12/28 07:17:26;;;;;;;38.17;15.95;;;5.20;99.90;;;;;;5085881;28;20549;-79
2021/12/28 07:19:53;;;;;;;35.35;14.85;;;5.20;99.90;;;;;;5074161;28;20040;-79
2021/12/28 07:22:19;;;;;;;40.30;14.65;;;4.10;99.90;;;;;;5084612;28;20044;-80
2021/12/28 07:24:44;;;;;;;34.85;14.60;;;5.20;99.90;;;;;;5082301;28;20054;-81
2021/12/28 07:27:10;;;;;;;39.75;16.00;;;5.20;99.90;;;;;;5085081;28;20070;-80
2021/12/28 07:29:36;;;;;;;38.45;14.85;;;5.20;99.90;;;;;;5083459;28;20040;-80
2021/12/28 07:32:04;;;;;;;37.33;15.27;;;5.20;99.90;;;;;;5083073;28;20071;-80
2021/12/28 07:34:31;;;;;;;43.38;16.35;;;5.10;99.90;;;;;;5084661;28;20042;-80
2021/12/28 07:36:57;;;;;;;36.63;15.25;;;5.20;99.90;;;;;;5082437;28;20074;-79
2021/12/28 07:39:22;;;;;;;39.03;14.90;;;5.10;99.90;;;;;;5084318;28;20050;-80
2021/12/28 07:41:48;;;;;;;36.97;15.73;;;5.10;99.90;;;;;;5082003;28;20127;-80
2021/12/28 07:44:14;;;;;;;42.97;16.33;;;5.10;99.90;;;;;;5084188;28;20048;-81
2021/12/28 07:46:40;;;;;;;36.60;15.90;;;6.20;99.90;;;;;;5082821;28;20048;-80
2021/12/28 07:49:06;;;;;;;49.25;14.68;;;5.10;99.90;;;;;;5082982;28;20040;-80
2021/12/28 07:51:32;;;;;;;44.40;15.45;;;5.10;99.90;;;;;;5084610;28;20040;-81
2021/12/28 07:53:57;;;;;;;32.97;15.07;;;5.20;99.90;;;;;;5081918;28;20044;-79
2021/12/28 07:56:23;;;;;;;38.30;14.85;;;5.20;99.90;;;;;;5084332;28;20044;-81
2021/12/28 07:58:49;;;;;;;38.20;15.23;;;5.20;99.90;;;;;;5064743;28;20096;-81
2021/12/28 08:01:15;;;;;;;28.75;13.80;;;5.20;99.90;;;;;;5067516;28;20101;-82
2021/12/28 08:03:40;;;;;;;27.27;12.95;;;5.40;99.90;;;;;;5081670;28;20048;-82
2021/12/28 08:06:06;;;;;;;33.38;12.88;;;5.20;99.90;;;;;;5066306;28;20048;-82
2021/12/28 08:08:32;;;;;;;35.50;14.32;;;5.10;99.90;;;;;;5083670;28;20044;-81
2021/12/28 08:10:58;;;;;;;28.85;13.45;;;5.20;99.90;;;;;;5081944;28;20044;-81
2021/12/28 08:13:24;;;;;;;26.23;11.90;;;5.30;99.90;;;;;;5084038;28;20487;-81
2021/12/28 08:15:49;;;;;;;28.98;12.20;;;5.20;99.90;;;;;;5081907;28;20040;-81
2021/12/28 08:18:15;;;;;;;25.42;11.38;;;5.20;99.90;;;;;;5083690;28;20513;-81
2021/12/28 08:20:41;;;;;;;27.98;11.15;;;5.20;99.90;;;;;;5084179;28;20376;-80
2021/12/28 08:23:07;;;;;;;34.90;10.68;;;5.20;99.90;;;;;;5084529;28;20048;-81
2021/12/28 08:25:33;;;;;;;23.23;11.07;;;5.20;99.90;;;;;;5084701;28;20040;-82
2021/12/28 08:28:01;;;;;;;24.38;10.30;;;5.20;99.90;;;;;;5083431;28;20451;-83
2021/12/28 08:30:27;;;;;;;21.92;10.35;;;5.20;99.90;;;;;;5083933;28;20059;-82
2021/12/28 08:32:53;;;;;;;17.92;9.30;;;5.10;99.90;;;;;;5081284;28;20044;-83
2021/12/28 08:35:19;;;;;;;25.77;9.07;;;5.10;99.90;;;;;;5083646;28;20044;-83
2021/12/28 08:37:45;;;;;;;23.00;9.50;;;5.10;99.90;;;;;;5082127;28;20078;-82
2021/12/28 08:40:12;;;;;;;25.80;10.75;;;5.10;99.90;;;;;;5083968;28;20059;-82
2021/12/28 08:42:38;;;;;;;26.58;8.60;;;5.20;99.90;;;;;;5084483;28;20771;-85
2021/12/28 08:45:06;;;;;;;18.33;9.80;;;5.70;99.90;;;;;;5081533;28;20127;-83
2021/12/28 08:47:33;;;;;;;26.35;9.63;;;5.20;99.90;;;;;;5083349;28;20488;-83
2021/12/28 08:49:59;;;;;;;18.63;7.97;;;5.20;99.90;;;;;;5081134;28;20047;-82
2021/12/28 08:52:25;;;;;;;19.63;8.10;;;5.20;99.90;;;;;;5066923;28;20071;-82
2021/12/28 08:54:52;;;;;;;19.63;8.00;;;5.20;99.90;;;;;;5064809;28;20040;-83
2021/12/28 08:57:19;;;;;;;25.55;8.35;;;5.30;99.90;;;;;;5065411;28;20480;-82
2021/12/28 08:59:45;;;;;;;18.25;7.43;;;5.30;99.90;;;;;;5082510;28;20132;-83
2021/12/28 09:02:11;;;;;;;20.80;8.10;;;5.50;99.90;;;;;;5081266;28;20044;-81
2021/12/28 09:04:42;;;;;;;16.08;7.80;;;5.30;99.90;;;;;;5083106;28;20553;-84
2021/12/28 09:07:09;;;;;;;18.48;8.40;;;6.50;99.90;;;;;;5080416;28;20536;-84
2021/12/28 09:09:35;;;;;;;19.77;7.45;;;5.30;99.90;;;;;;5066610;28;20051;-83
2021/12/28 09:12:00;;;;;;;24.23;8.18;;;6.40;99.90;;;;;;5081413;28;20047;-84
2021/12/28 09:14:26;;;;;;;24.10;8.10;;;5.40;99.90;;;;;;5085305;28;20130;-84
2021/12/28 09:16:52;;;;;;;19.50;7.65;;;5.50;99.90;;;;;;5087810;28;20587;-83
2021/12/28 09:19:17;;;;;;;16.67;7.32;;;5.70;99.90;;;;;;5068248;28;20040;-83
2021/12/28 09:21:43;;;;;;;17.95;6.95;;;5.50;99.90;;;;;;5088122;28;20042;-82
2021/12/28 09:24:09;;;;;;;11.75;6.57;;;5.70;99.90;;;;;;5051008;28;20101;-83
2021/12/28 09:26:35;;;;;;;14.85;6.80;;;5.80;99.90;;;;;;5088473;28;20032;-82
2021/12/28 09:29:01;;;;;;;23.73;6.57;;;5.60;99.90;;;;;;5068127;28;20044;-82
2021/12/28 09:31:26;;;;;;;17.98;7.03;;;5.60;99.90;;;;;;5069569;28;20044;-81
2021/12/28 09:33:52;;;;;;;19.42;6.82;;;5.60;99.90;;;;;;5069327;28;20587;-83
2021/12/28 09:36:18;;;;;;;20.55;6.10;;;5.60;99.90;;;;;;5084884;28;20100;-84
2021/12/28 09:38:45;;;;;;;22.92;6.38;;;6.80;99.90;;;;;;5086849;28;20136;-83
2021/12/28 09:41:12;;;;;;;14.75;6.22;;;5.70;99.90;;;;;;5084118;28;20598;-83
2021/12/28 09:43:38;;;;;;;18.05;6.45;;;5.70;99.90;;;;;;5086915;28;20124;-82
2021/12/28 09:46:04;;;;;;;21.63;6.55;;;5.80;99.90;;;;;;5085340;28;20495;-83
2021/12/28 09:48:31;;;;;;;14.45;5.82;;;5.80;99.90;;;;;;5086345;28;20557;-82
2021/12/28 09:50:58;;;;;;;15.85;5.97;;;6.40;99.90;;;;;;5085731;28;20549;-82
2021/12/28 09:53:23;;;;;;;13.32;6.60;;;5.90;99.90;;;;;;5051434;28;20502;-82
2021/12/28 09:55:49;;;;;;;21.20;6.00;;;5.90;99.90;;;;;;5088335;28;20115;-84
2021/12/28 09:58:15;;;;;;;12.95;5.65;;;5.90;99.90;;;;;;5083572;28;20044;-82
2021/12/28 10:00:41;;;;;;;13.85;6.43;;;6.00;99.90;;;;;;5068888;28;20063;-83
2021/12/28 10:03:07;;;;;;;15.45;6.53;;;6.00;99.90;;;;;;5085728;28;20055;-82
2021/12/28 10:05:33;;;;;;;19.27;6.60;;;6.20;99.90;;;;;;5068993;28;20450;-83
2021/12/28 10:08:02;;;;;;;15.32;5.40;;;6.00;99.90;;;;;;5086950;28;20083;-82
2021/12/28 10:10:33;;;;;;;18.20;5.95;;;6.00;99.90;;;;;;5084510;28;20437;-82
2021/12/28 10:13:07;;;;;;;16.92;5.30;;;6.00;99.90;;;;;;5087103;28;20052;-83
2021/12/28 10:15:39;;;;;;;13.48;4.38;;;6.10;99.90;;;;;;5066095;28;20052;-83
2021/12/28 10:18:08;;;;;;;15.30;5.60;;;7.40;99.90;;;;;;5087144;28;20048;-82
2021/12/28 10:20:38;;;;;;;19.85;5.03;;;4.70;99.90;;;;;;5085135;28;20052;-82
2021/12/28 10:23:06;;;;;;;20.30;6.03;;;6.20;99.90;;;;;;5084884;28;20044;-82
2021/12/28 10:25:36;;;;;;;18.45;4.78;;;6.20;99.90;;;;;;5084730;28;20040;-81
2021/12/28 10:28:15;;;;;;;10.60;4.68;;;7.20;99.90;;;;;;5083806;28;20139;-81
2021/12/28 10:30:51;;;;;;;21.65;4.97;;;6.10;99.90;;;;;;5086239;28;20444;-81
2021/12/28 10:33:20;;;;;;;23.63;4.95;;;6.40;99.90;;;;;;5084753;28;20054;-81
2021/12/28 10:35:50;;;;;;;17.75;4.78;;;6.40;99.90;;;;;;5084836;28;20036;-81
2021/12/28 10:38:30;;;;;;;11.45;3.60;;;6.50;99.90;;;;;;5068927;28;20432;-81
2021/12/28 10:41:14;;;;;;;15.80;4.82;;;7.80;99.90;;;;;;5082618;28;20052;-81
2021/12/28 10:43:47;;;;;;;11.40;3.65;;;6.50;99.90;;;;;;5085900;28;20628;-81
2021/12/28 10:46:16;;;;;;;9.52;4.03;;;6.60;99.90;;;;;;5067085;28;20044;-82
2021/12/28 10:48:47;;;;;;;16.92;3.80;;;6.60;99.90;;;;;;5085331;28;20477;-82
2021/12/28 10:51:39;;;;;;;10.65;3.88;;;7.90;99.90;;;;;;5086192;28;20048;-81
2021/12/28 10:54:12;;;;;;;15.80;4.50;;;6.70;99.90;;;;;;5067235;28;20109;-81
2021/12/28 10:56:39;;;;;;;;;;;6.70;99.90;;;;;;5086211;28;20400;-81
2021/12/28 10:59:06;;;;;;;19.42;4.85;;;6.60;99.90;;;;;;5066864;28;19927;-81
2021/12/28 11:01:35;;;;;;;12.48;3.83;;;6.60;99.90;;;;;;5084014;28;20074;-81
2021/12/28 11:04:09;;;;;;;14.48;4.05;;;6.60;99.90;;;;;;5085165;28;20048;-81
2021/12/28 11:06:43;;;;;;;16.75;4.00;;;6.60;99.90;;;;;;5065718;28;20044;-81
2021/12/28 11:09:17;;;;;;;21.67;3.97;;;7.20;99.90;;;;;;5084982;28;20510;-81
2021/12/28 11:11:43;;;;;;;14.88;4.13;;;6.60;99.90;;;;;;5066518;28;20128;-81
2021/12/28 11:14:12;;;;;;;19.42;4.28;;;6.60;99.90;;;;;;5083915;28;20055;-80
2021/12/28 11:16:39;;;;;;;14.20;3.83;;;6.60;99.90;;;;;;5084882;28;20127;-80
2021/12/28 11:19:08;;;;;;;16.50;4.55;;;6.60;99.90;;;;;;5084077;28;20101;-79
2021/12/28 11:21:39;;;;;;;11.55;4.50;;;6.60;99.90;;;;;;5086570;28;20040;-82
2021/12/28 11:24:06;;;;;;;11.70;4.18;;;6.70;99.90;;;;;;5082122;28;20094;-82
2021/12/28 11:26:38;;;;;;;11.85;3.55;;;6.70;99.90;;;;;;5085107;28;20076;-82
2021/12/28 11:29:15;;;;;;;8.90;4.03;;;6.70;99.90;;;;;;5085284;28;20368;-82
2021/12/28 11:31:47;;;;;;;13.68;4.28;;;7.10;99.90;;;;;;5084322;28;20127;-82
2021/12/28 11:34:23;;;;;;;16.15;3.97;;;6.70;99.90;;;;;;5086112;28;20115;-82
2021/12/28 11:36:55;;;;;;;11.60;4.60;;;6.70;99.90;;;;;;5081908;28;20072;-83
2021/12/28 11:39:28;;;;;;;13.63;4.68;;;6.70;99.90;;;;;;5084356;28;20040;-82
2021/12/28 11:41:55;;;;;;;9.93;3.88;;;6.70;99.90;;;;;;5085188;28;20512;-81
2021/12/28 11:44:23;;;;;;;14.73;4.32;;;6.80;99.90;;;;;;5066125;28;20071;-82
2021/12/28 11:46:50;;;;;;;10.95;4.47;;;6.80;99.90;;;;;;5067448;28;20402;-84
2021/12/28 11:49:16;;;;;;;15.07;4.13;;;6.80;99.90;;;;;;5065000;28;20570;-84
2021/12/28 11:51:46;;;;;;;11.68;3.85;;;6.80;99.90;;;;;;5067639;28;20059;-81
2021/12/28 11:54:15;;;;;;;11.52;4.30;;;6.80;99.90;;;;;;5065180;28;20118;-81
2021/12/28 11:56:44;;;;;;;12.60;4.57;;;6.90;99.90;;;;;;5067367;28;20044;-83
2021/12/28 11:59:26;;;;;;;11.38;4.10;;;6.90;99.90;;;;;;5083260;28;20055;-81
2021/12/28 12:01:51;;;;;;;12.07;4.97;;;6.90;99.90;;;;;;5064105;28;20044;-81
2021/12/28 12:04:32;;;;;;;11.43;4.88;;;6.90;99.90;;;;;;5083847;28;20058;-81
2021/12/28 12:07:09;;;;;;;10.27;4.90;;;6.90;99.90;;;;;;5081577;28;20075;-77
2021/12/28 12:09:57;;;;;;;8.23;4.20;;;7.00;99.90;;;;;;5083488;28;20096;-82
2021/12/28 12:12:30;;;;;;;12.68;5.05;;;7.00;99.90;;;;;;5083687;28;20055;-82
2021/12/28 12:15:00;;;;;;;8.50;4.63;;;7.00;99.90;;;;;;5082000;28;20036;-81
2021/12/28 12:17:37;;;;;;;9.38;5.25;;;7.00;99.90;;;;;;5085351;28;20052;-81
2021/12/28 12:20:15;;;;;;;8.75;4.10;;;7.30;99.90;;;;;;5082433;28;20094;-82
2021/12/28 12:22:45;;;;;;;14.70;4.60;;;7.10;99.90;;;;;;5084409;28;20372;-81
2021/12/28 12:25:13;;;;;;;9.40;4.28;;;7.10;99.90;;;;;;5083987;28;20044;-81
2021/12/28 12:27:46;;;;;;;8.90;4.25;;;7.10;99.90;;;;;;5081203;28;20040;-81
2021/12/28 12:30:15;;;;;;;;;;;7.10;99.90;;;;;;5084482;28;20075;-81
2021/12/28 12:32:58;;;;;;;12.80;4.50;;;7.10;99.90;;;;;;5082889;28;19920;-82
2021/12/28 12:35:34;;;;;;;14.05;4.07;;;7.10;99.90;;;;;;5084667;28;20044;-82
2021/12/28 12:38:02;;;;;;;11.10;5.18;;;7.10;99.90;;;;;;5084773;28;20048;-82
2021/12/28 12:40:49;;;;;;;8.18;4.25;;;7.30;99.90;;;;;;5080984;28;20048;-82
2021/12/28 12:43:16;;;;;;;15.93;5.05;;;7.20;99.90;;;;;;5066220;28;20135;-82
2021/12/28 12:45:52;;;;;;;13.40;4.88;;;7.20;99.90;;;;;;5081406;28;20132;-81